Pagrindinis puslapis
METAR-TAF:

METAR-TAF

Oro uostai :

Ostinas, Teksasas, Jungtinės Amerikos Valstijos

platuma: 30-24-00N, ilguma: 097-34-25W, Aukštis: 189 m

Dabartinis oras

Ataskaita buvo paskelbta 33 minutes, ne 05:55 UTC
Ramus vėjas
Temperatūra 18°C
Drėgmė 83%
Slėgis 1014 hPa
Matomumas: 16.1 km
Giedras dangus

METAR: KEDC 270555Z AUTO 00000KT 10SM CLR 18/15 A2993 RMK AO2

Laikas: 00:28 (06:28 UTC)


TAF: trūkstamas

Orai ataskaitas ir orų prognozės (METAR, TAF).

turimą stotys yra geltonos ir raudonos taškus žemėlapyje.

Perkelti pele per norėdami pamatyti stoties vardą.

Tada spustelėkite, norėdami matyti oro stebėjimo ir prognozės.

Norėdami pakeisti žemėlapį: spustelėkite ant žalios mygtukų su juodo kryžiaus žemyn,; žalią mygtuką su brūkšneliu, jei norite nutolinti; arba žalių rodyklių gretimoms žemėlapius.


METAR-TAF: